Time;durP1;ratioP1;P1;durP2;ratioP2;P2;SDS_P1;SDS_P2;PMS_P1;PMS_P2;Temp;Humidity;BMP_temperature;BMP_pressure;BME280_temperature;BME280_humidity;BME280_pressure;Samples;Min_cycle;Max_cycle;Signal;HPM_P1;HPM_P2
2021/06/07 00:02:29;;;;;;;4.17;3.30;;;14.70;1.00;;;;;;5092926;28;20634;-71
2021/06/07 00:05:16;;;;;;;4.83;3.63;;;14.60;1.00;;;;;;5076690;28;20232;-71
2021/06/07 00:08:05;;;;;;;7.33;3.77;;;14.50;1.00;;;;;;5083314;28;20203;-71
2021/06/07 00:10:52;;;;;;;6.50;3.90;;;14.40;1.00;;;;;;5084880;28;20603;-71
2021/06/07 00:13:41;;;;;;;5.57;3.80;;;14.30;1.00;;;;;;5054501;28;20258;-71
2021/06/07 00:16:28;;;;;;;4.77;3.57;;;14.20;1.00;;;;;;5053743;28;20203;-71
2021/06/07 00:19:16;;;;;;;5.10;3.50;;;14.20;1.00;;;;;;5087729;28;20202;-71
2021/06/07 00:22:03;;;;;;;7.13;3.77;;;14.10;1.00;;;;;;5092710;28;20324;-71
2021/06/07 00:24:52;;;;;;;4.80;3.73;;;14.00;1.00;;;;;;5085535;28;20538;-71
2021/06/07 00:27:39;;;;;;;6.00;3.60;;;13.90;1.00;;;;;;5075311;28;20342;-71
2021/06/07 00:30:26;;;;;;;11.90;4.07;;;13.80;1.00;;;;;;5088143;28;20219;-71
2021/06/07 00:33:13;;;;;;;6.83;4.23;;;13.80;1.00;;;;;;5083802;28;20575;-71
2021/06/07 00:36:01;;;;;;;6.03;4.10;;;13.60;1.00;;;;;;5090735;28;20196;-71
2021/06/07 00:38:48;;;;;;;8.93;4.60;;;13.60;1.00;;;;;;5073707;28;20207;-71
2021/06/07 00:41:37;;;;;;;7.13;4.00;;;13.60;1.00;;;;;;5091145;28;20644;-71
2021/06/07 00:44:24;;;;;;;4.87;3.90;;;13.50;1.00;;;;;;5074028;28;20647;-71
2021/06/07 00:47:11;;;;;;;9.17;4.10;;;13.50;1.00;;;;;;5075383;28;20217;-71
2021/06/07 00:49:58;;;;;;;5.10;3.73;;;13.50;1.00;;;;;;5087262;28;20219;-71
2021/06/07 00:55:39;;;;;;;7.03;3.87;;;13.50;1.00;;;;;;5165933;27;20726;-70
2021/06/07 00:58:27;;;;;;;10.47;3.77;;;13.40;1.00;;;;;;5148263;27;20278;-70
2021/06/07 01:01:15;;;;;;;6.73;4.27;;;13.40;1.10;;;;;;5158928;27;20202;-70
2021/06/07 01:04:02;;;;;;;10.10;3.90;;;13.40;1.60;;;;;;5156246;27;20189;-69
2021/06/07 01:06:49;;;;;;;9.37;4.30;;;13.40;6.00;;;;;;5154640;27;20241;-70
2021/06/07 01:09:36;;;;;;;10.03;4.10;;;13.40;3.80;;;;;;5151615;27;20199;-70
2021/06/07 01:12:25;;;;;;;13.33;4.37;;;13.40;7.20;;;;;;5144821;27;20190;-70
2021/06/07 01:15:13;;;;;;;12.20;5.07;;;13.30;6.80;;;;;;5169253;27;20222;-70
2021/06/07 01:18:00;;;;;;;11.07;5.40;;;13.30;6.90;;;;;;5152926;27;20208;-70
2021/06/07 01:20:51;;;;;;;10.60;4.37;;;13.20;10.50;;;;;;5152369;27;20218;-70
2021/06/07 01:23:40;;;;;;;6.83;4.13;;;13.10;16.30;;;;;;5151026;27;20664;-70
2021/06/07 01:26:28;;;;;;;6.23;4.30;;;13.00;21.40;;;;;;5156523;27;20195;-70
2021/06/07 01:29:15;;;;;;;6.83;4.60;;;13.00;21.10;;;;;;5166007;27;20201;-70
2021/06/07 01:32:02;;;;;;;9.63;4.50;;;13.00;26.00;;;;;;5153140;27;20182;-70
2021/06/07 01:34:49;;;;;;;7.07;4.33;;;12.90;27.50;;;;;;5152423;27;20604;-70
2021/06/07 01:37:37;;;;;;;5.40;4.40;;;12.70;37.60;;;;;;5165835;27;20198;-70
2021/06/07 01:40:27;;;;;;;11.87;4.30;;;12.70;38.90;;;;;;5151090;27;20627;-70
2021/06/07 01:43:14;;;;;;;6.20;4.53;;;12.60;42.50;;;;;;5148208;27;20193;-70
2021/06/07 01:46:01;;;;;;;8.93;4.37;;;12.50;47.10;;;;;;5160089;27;20220;-70
2021/06/07 01:48:48;;;;;;;9.37;4.70;;;12.50;51.70;;;;;;5191734;27;20194;-70
2021/06/07 01:51:35;;;;;;;8.97;4.30;;;12.40;54.70;;;;;;5173696;27;20637;-70
2021/06/07 01:54:22;;;;;;;8.87;4.47;;;12.40;59.80;;;;;;5182018;27;20301;-70
2021/06/07 01:57:10;;;;;;;8.23;4.53;;;12.40;61.10;;;;;;5190810;27;20209;-70
2021/06/07 01:59:57;;;;;;;7.90;5.13;;;12.30;67.50;;;;;;5177359;27;20189;-70
2021/06/07 02:02:45;;;;;;;9.97;4.70;;;12.30;67.00;;;;;;5183690;27;20639;-70
2021/06/07 02:05:33;;;;;;;6.03;4.60;;;12.30;66.50;;;;;;5184586;27;20191;-70
2021/06/07 02:08:20;;;;;;;5.97;4.23;;;12.20;69.80;;;;;;5166684;27;20708;-70
2021/06/07 02:11:08;;;;;;;7.97;4.83;;;12.10;70.90;;;;;;5175410;27;20537;-70
2021/06/07 02:14:00;;;;;;;10.57;4.73;;;12.00;69.00;;;;;;5177644;27;20742;-69
2021/06/07 02:16:47;;;;;;;8.87;4.50;;;12.00;68.20;;;;;;5160501;27;20195;-70
2021/06/07 02:19:34;;;;;;;7.87;4.70;;;12.00;70.10;;;;;;5157412;27;20198;-71
2021/06/07 02:22:22;;;;;;;6.23;4.50;;;11.90;70.60;;;;;;5158934;27;20186;-72
2021/06/07 02:25:10;;;;;;;7.97;4.80;;;11.90;73.30;;;;;;5157457;27;20194;-71
2021/06/07 02:27:57;;;;;;;8.43;5.03;;;11.80;72.30;;;;;;5172490;27;20268;-71
2021/06/07 02:30:46;;;;;;;10.67;5.37;;;11.80;75.80;;;;;;5158776;27;20203;-71
2021/06/07 02:33:33;;;;;;;6.97;4.43;;;11.80;81.20;;;;;;5156859;27;20199;-71
2021/06/07 02:36:20;;;;;;;7.50;4.57;;;11.70;84.90;;;;;;5169682;27;20209;-71
2021/06/07 02:39:08;;;;;;;8.17;4.67;;;11.70;85.10;;;;;;5164021;27;20193;-71
2021/06/07 02:41:55;;;;;;;6.53;4.43;;;11.70;88.10;;;;;;5151867;27;20191;-71
2021/06/07 02:44:43;;;;;;;5.63;4.17;;;11.70;85.60;;;;;;5162543;27;20275;-71
2021/06/07 02:47:34;;;;;;;6.63;4.33;;;11.60;83.50;;;;;;5147684;27;20225;-71
2021/06/07 02:50:23;;;;;;;8.33;4.30;;;11.60;87.20;;;;;;5149115;27;20267;-71
2021/06/07 02:53:10;;;;;;;9.77;3.90;;;11.60;86.70;;;;;;5156479;27;20224;-71
2021/06/07 02:55:58;;;;;;;4.30;3.63;;;11.60;87.10;;;;;;5138252;27;20636;-71
2021/06/07 02:58:45;;;;;;;6.60;4.00;;;11.60;84.90;;;;;;5131935;27;20201;-71
2021/06/07 03:01:32;;;;;;;10.57;4.40;;;11.60;84.70;;;;;;5134004;27;20202;-71
2021/06/07 03:04:21;;;;;;;6.27;4.23;;;11.60;84.70;;;;;;5136058;27;20194;-71
2021/06/07 03:07:08;;;;;;;5.43;3.80;;;11.60;83.80;;;;;;5136302;27;20201;-71
2021/06/07 03:09:55;;;;;;;8.87;4.33;;;11.60;84.40;;;;;;5131330;27;20226;-71
2021/06/07 03:12:42;;;;;;;4.83;3.83;;;11.50;84.60;;;;;;5144000;27;20197;-71
2021/06/07 03:15:29;;;;;;;5.70;4.07;;;11.60;85.50;;;;;;5140050;27;20697;-69
2021/06/07 03:18:16;;;;;;;4.80;3.50;;;11.60;85.20;;;;;;5137529;27;20200;-69
2021/06/07 03:21:05;;;;;;;5.47;3.73;;;11.70;84.10;;;;;;5134726;27;20195;-69
2021/06/07 03:23:52;;;;;;;5.13;3.57;;;11.60;79.50;;;;;;5135229;27;20639;-69
2021/06/07 03:26:39;;;;;;;5.80;3.83;;;11.70;82.10;;;;;;5149572;27;20643;-69
2021/06/07 03:29:26;;;;;;;7.77;3.60;;;11.70;82.20;;;;;;5136434;27;20197;-69
2021/06/07 03:32:14;;;;;;;4.80;3.50;;;11.70;83.00;;;;;;5154970;27;20192;-69
2021/06/07 03:35:01;;;;;;;3.97;3.50;;;11.70;79.70;;;;;;5152044;27;20637;-69
2021/06/07 03:37:49;;;;;;;5.33;3.90;;;11.80;79.00;;;;;;5140372;27;20307;-69
2021/06/07 03:40:38;;;;;;;6.73;3.80;;;11.80;76.30;;;;;;5135750;27;20201;-71
2021/06/07 03:43:26;;;;;;;5.40;3.43;;;11.80;74.70;;;;;;5144753;27;20202;-71
2021/06/07 03:46:13;;;;;;;7.50;3.60;;;11.90;72.90;;;;;;5135492;27;20212;-71
2021/06/07 03:49:01;;;;;;;7.50;3.57;;;11.90;70.90;;;;;;5136498;27;20219;-71
2021/06/07 03:51:49;;;;;;;6.50;3.60;;;12.10;69.80;;;;;;5116644;27;20202;-71
2021/06/07 03:54:37;;;;;;;5.30;3.50;;;12.20;60.00;;;;;;5129113;27;20533;-71
2021/06/07 03:57:24;;;;;;;6.07;3.50;;;12.20;53.70;;;;;;5142324;27;20516;-72
2021/06/07 04:00:13;;;;;;;5.43;3.60;;;12.40;51.80;;;;;;5154860;27;20655;-71
2021/06/07 04:03:02;;;;;;;9.20;4.10;;;12.50;52.20;;;;;;5131255;27;20770;-71
2021/06/07 04:05:49;;;;;;;5.00;3.67;;;12.60;52.70;;;;;;5128713;27;20190;-71
2021/06/07 04:08:36;;;;;;;10.53;3.90;;;12.70;49.90;;;;;;5148904;27;20229;-71
2021/06/07 04:11:25;;;;;;;5.60;3.67;;;12.80;51.00;;;;;;5154899;27;20529;-71
2021/06/07 04:14:12;;;;;;;5.83;3.83;;;13.00;52.80;;;;;;5142876;27;20212;-71
2021/06/07 04:16:59;;;;;;;7.23;3.53;;;13.10;51.10;;;;;;5148957;27;20200;-71
2021/06/07 04:19:46;;;;;;;9.77;3.50;;;13.20;56.30;;;;;;5131842;27;20202;-72
2021/06/07 04:22:33;;;;;;;7.13;3.80;;;13.40;58.40;;;;;;5131989;27;20628;-71
2021/06/07 04:25:21;;;;;;;4.73;3.20;;;13.50;55.00;;;;;;5134084;27;20662;-71
2021/06/07 04:28:09;;;;;;;6.37;3.47;;;13.80;32.60;;;;;;5146071;27;20196;-71
2021/06/07 04:30:57;;;;;;;5.57;3.33;;;14.00;29.20;;;;;;5134020;27;20638;-71
2021/06/07 04:33:44;;;;;;;4.67;3.37;;;14.10;12.10;;;;;;5128093;27;20536;-72
2021/06/07 04:36:31;;;;;;;3.70;3.30;;;14.20;1.00;;;;;;5143087;27;20205;-71
2021/06/07 04:39:18;;;;;;;7.67;3.27;;;14.40;1.00;;;;;;5130474;27;20206;-70
2021/06/07 04:42:06;;;;;;;4.60;3.23;;;14.50;1.00;;;;;;5139969;27;20192;-69
2021/06/07 04:44:55;;;;;;;5.70;3.20;;;14.70;1.00;;;;;;5143982;27;20717;-69
2021/06/07 04:47:42;;;;;;;4.07;3.03;;;14.80;1.00;;;;;;5146554;27;20298;-70
2021/06/07 04:50:30;;;;;;;7.33;3.53;;;14.90;1.00;;;;;;5154184;27;20595;-70
2021/06/07 04:53:17;;;;;;;9.57;3.20;;;15.10;1.00;;;;;;5152325;27;20291;-69
2021/06/07 04:56:05;;;;;;;5.30;3.27;;;15.30;1.00;;;;;;5174420;27;20680;-70
2021/06/07 04:58:52;;;;;;;3.90;3.00;;;15.50;1.00;;;;;;5173896;27;20244;-69
2021/06/07 05:01:41;;;;;;;3.30;2.90;;;15.60;1.00;;;;;;5174529;27;20244;-70
2021/06/07 05:04:28;;;;;;;4.53;2.80;;;15.80;1.00;;;;;;5173877;27;20193;-70
2021/06/07 05:07:16;;;;;;;8.47;2.90;;;16.00;1.00;;;;;;5174760;27;20188;-70
2021/06/07 05:10:04;;;;;;;5.17;3.03;;;16.20;1.00;;;;;;5173087;27;20185;-69
2021/06/07 05:12:51;;;;;;;4.50;2.80;;;16.40;1.00;;;;;;5174856;27;20544;-69
2021/06/07 05:15:38;;;;;;;5.07;3.20;;;16.60;1.00;;;;;;5173456;27;20212;-69
2021/06/07 05:18:27;;;;;;;5.80;2.93;;;16.80;1.00;;;;;;5173733;27;20635;-70
2021/06/07 05:21:14;;;;;;;5.10;3.10;;;17.10;1.00;;;;;;5167468;27;20187;-70
2021/06/07 05:24:01;;;;;;;3.40;2.90;;;17.30;1.00;;;;;;5174265;27;20561;-70
2021/06/07 05:26:48;;;;;;;5.80;3.00;;;17.50;1.00;;;;;;5174056;27;20193;-69
2021/06/07 05:29:36;;;;;;;4.50;2.90;;;17.70;1.00;;;;;;5174302;27;20201;-70
2021/06/07 05:32:23;;;;;;;6.97;3.17;;;17.90;1.00;;;;;;5165159;27;20202;-70
2021/06/07 05:35:12;;;;;;;3.57;3.00;;;18.00;1.00;;;;;;5172660;27;20217;-70
2021/06/07 05:37:59;;;;;;;6.83;2.80;;;18.20;1.00;;;;;;5167429;27;20219;-70
2021/06/07 05:40:48;;;;;;;7.00;2.93;;;18.40;1.00;;;;;;5165234;27;20350;-70
2021/06/07 05:43:35;;;;;;;6.03;2.90;;;18.60;1.00;;;;;;5177450;27;20671;-70
2021/06/07 05:46:22;;;;;;;9.03;3.00;;;18.80;1.00;;;;;;5177343;27;20656;-70
2021/06/07 05:49:09;;;;;;;3.70;2.60;;;19.00;99.90;;;;;;5176185;27;20195;-70
2021/06/07 05:51:58;;;;;;;4.40;2.80;;;19.20;99.90;;;;;;5178127;27;20199;-70
2021/06/07 05:54:45;;;;;;;4.10;2.70;;;19.40;99.90;;;;;;5167301;27;20232;-70
2021/06/07 05:57:32;;;;;;;5.87;2.60;;;19.50;99.90;;;;;;5173589;27;20642;-69
2021/06/07 06:00:20;;;;;;;4.60;2.67;;;19.70;1.00;;;;;;5168504;27;20555;-70
2021/06/07 06:03:07;;;;;;;4.87;2.93;;;19.90;1.00;;;;;;5177990;27;20207;-70
2021/06/07 06:05:55;;;;;;;4.13;2.50;;;20.10;99.90;;;;;;5177820;27;20199;-70
2021/06/07 06:08:43;;;;;;;10.10;2.60;;;20.30;99.90;;;;;;5171070;27;20205;-70
2021/06/07 06:11:30;;;;;;;4.27;2.60;;;20.50;99.90;;;;;;5180262;27;20196;-70
2021/06/07 06:14:17;;;;;;;5.90;2.60;;;20.70;99.90;;;;;;5177580;27;20211;-70
2021/06/07 06:17:06;;;;;;;7.43;2.57;;;20.90;99.90;;;;;;5175019;27;20203;-70
2021/06/07 06:19:53;;;;;;;4.07;2.63;;;21.10;99.90;;;;;;5177115;27;20220;-70
2021/06/07 06:22:40;;;;;;;3.03;2.27;;;21.20;99.90;;;;;;5177739;27;20198;-70
2021/06/07 06:25:28;;;;;;;6.33;2.10;;;21.40;99.90;;;;;;5177034;27;20201;-70
2021/06/07 06:28:16;;;;;;;4.67;2.23;;;21.50;97.50;;;;;;5176998;27;20699;-70
2021/06/07 06:31:03;;;;;;;4.90;2.40;;;21.70;96.00;;;;;;5172014;27;20220;-70
2021/06/07 06:33:50;;;;;;;3.17;1.90;;;21.90;94.30;;;;;;5174566;27;20197;-70
2021/06/07 06:36:38;;;;;;;3.93;2.30;;;22.00;91.80;;;;;;5176363;27;20289;-70
2021/06/07 06:39:25;;;;;;;3.67;2.10;;;22.10;90.40;;;;;;5176004;27;20531;-70
2021/06/07 06:42:14;;;;;;;7.40;2.20;;;22.30;90.20;;;;;;5164928;27;20538;-70
2021/06/07 06:45:01;;;;;;;2.60;2.13;;;22.40;90.00;;;;;;5176574;27;20189;-70
2021/06/07 06:47:51;;;;;;;4.00;2.20;;;22.40;88.60;;;;;;5167807;27;20693;-70
2021/06/07 06:50:39;;;;;;;2.47;2.17;;;22.50;88.90;;;;;;5176050;27;20193;-70
2021/06/07 06:53:27;;;;;;;2.90;2.00;;;22.40;87.50;;;;;;5176591;27;20208;-70
2021/06/07 06:56:14;;;;;;;4.30;2.30;;;22.40;85.70;;;;;;5176599;27;20638;-70
2021/06/07 06:59:02;;;;;;;2.83;2.47;;;22.40;84.50;;;;;;5176742;27;20216;-70
2021/06/07 07:01:49;;;;;;;2.73;2.27;;;22.40;83.60;;;;;;5169220;27;20196;-70
2021/06/07 07:04:37;;;;;;;4.10;2.10;;;22.50;84.30;;;;;;5174637;27;20269;-70
2021/06/07 07:07:24;;;;;;;3.90;2.40;;;22.70;83.30;;;;;;5176327;27;20254;-70
2021/06/07 07:10:12;;;;;;;2.40;2.20;;;23.00;82.00;;;;;;5173811;27;20355;-70
2021/06/07 07:12:59;;;;;;;4.00;2.30;;;23.00;78.90;;;;;;5176455;27;20194;-70
2021/06/07 07:15:47;;;;;;;8.80;2.33;;;23.00;78.30;;;;;;5166727;27;20213;-70
2021/06/07 07:18:34;;;;;;;4.00;2.30;;;23.10;78.70;;;;;;5176022;27;20194;-70
2021/06/07 07:21:21;;;;;;;2.70;2.10;;;23.30;78.10;;;;;;5175689;27;20530;-70
2021/06/07 07:24:09;;;;;;;5.07;2.47;;;23.40;77.90;;;;;;5170675;27;20661;-70
2021/06/07 07:26:57;;;;;;;2.90;2.57;;;23.60;77.70;;;;;;5174412;27;20734;-70
2021/06/07 07:29:44;;;;;;;3.23;2.60;;;23.70;76.70;;;;;;5163803;27;20238;-70
2021/06/07 07:32:32;;;;;;;6.10;2.50;;;23.80;75.70;;;;;;5171382;27;20201;-70
2021/06/07 07:35:19;;;;;;;4.33;2.63;;;23.80;72.60;;;;;;5157188;27;20211;-70
2021/06/07 07:38:06;;;;;;;5.40;2.50;;;23.80;75.20;;;;;;5176101;27;20204;-70
2021/06/07 07:40:53;;;;;;;4.17;2.90;;;23.80;75.00;;;;;;5175457;27;20238;-70
2021/06/07 07:43:40;;;;;;;5.50;2.60;;;23.90;71.60;;;;;;5176053;27;20193;-70
2021/06/07 07:46:27;;;;;;;4.07;2.77;;;23.80;71.00;;;;;;5175525;27;20223;-70
2021/06/07 07:49:16;;;;;;;4.77;2.70;;;23.90;73.40;;;;;;5167517;27;20708;-69
2021/06/07 07:52:04;;;;;;;2.80;2.50;;;24.00;71.80;;;;;;5175971;27;20246;-69
2021/06/07 07:54:51;;;;;;;3.20;2.70;;;24.40;73.90;;;;;;5175143;27;20228;-70
2021/06/07 07:57:38;;;;;;;4.73;2.47;;;24.60;72.30;;;;;;5174688;27;20245;-70
2021/06/07 08:00:27;;;;;;;3.43;2.90;;;24.50;70.40;;;;;;5163502;27;20297;-70
2021/06/07 08:03:14;;;;;;;3.50;2.70;;;24.90;72.00;;;;;;5166511;27;20200;-70
2021/06/07 08:06:02;;;;;;;3.03;2.50;;;25.00;70.00;;;;;;5174761;27;20204;-70
2021/06/07 08:08:49;;;;;;;6.00;2.70;;;25.30;67.60;;;;;;5174351;27;20193;-70
2021/06/07 08:11:49;;;;;;;2.83;2.40;;;25.60;66.60;;;;;;5174416;27;20687;-71
2021/06/07 08:14:49;;;;;;;4.03;2.30;;;25.50;61.50;;;;;;5161187;27;20217;-70
2021/06/07 08:17:36;;;;;;;3.67;2.40;;;25.20;58.50;;;;;;5130743;27;20658;-72
2021/06/07 08:20:24;;;;;;;3.17;2.60;;;24.90;62.80;;;;;;5168981;27;20232;-73
2021/06/07 08:23:12;;;;;;;5.33;2.70;;;25.10;65.90;;;;;;5174070;27;20190;-73
2021/06/07 08:25:59;;;;;;;3.63;2.87;;;25.50;63.60;;;;;;5170716;27;20193;-73
2021/06/07 08:28:46;;;;;;;7.83;2.83;;;25.90;65.50;;;;;;5161036;27;20651;-73
2021/06/07 08:31:33;;;;;;;3.13;2.43;;;25.70;62.00;;;;;;5172709;27;20228;-73
2021/06/07 08:34:20;;;;;;;4.27;2.50;;;25.70;63.60;;;;;;5165224;27;20205;-73
2021/06/07 08:37:07;;;;;;;5.93;2.30;;;25.90;60.20;;;;;;5171668;27;20642;-73
2021/06/07 08:39:56;;;;;;;3.80;2.60;;;26.00;58.90;;;;;;5153078;27;20534;-73
2021/06/07 08:42:43;;;;;;;2.90;2.60;;;26.20;59.10;;;;;;5146481;27;20232;-72
2021/06/07 08:45:30;;;;;;;4.80;2.55;;;26.60;61.70;;;;;;5155042;27;20190;-72
2021/06/07 08:48:17;;;;;;;4.85;2.67;;;26.80;60.80;;;;;;5148895;27;20194;-72
2021/06/07 08:51:05;;;;;;;3.45;2.63;;;26.90;61.00;;;;;;5169303;27;20277;-73
2021/06/07 08:53:52;;;;;;;6.05;2.80;;;26.60;60.80;;;;;;5171700;27;20264;-74
2021/06/07 08:56:42;;;;;;;3.45;2.35;;;26.40;62.70;;;;;;5152000;27;20652;-73
2021/06/07 08:59:29;;;;;;;3.78;2.47;;;26.10;60.00;;;;;;5150270;27;20193;-74
2021/06/07 09:02:16;;;;;;;4.28;2.80;;;26.10;59.50;;;;;;5153393;27;20198;-73
2021/06/07 09:05:04;;;;;;;3.72;2.40;;;26.30;58.90;;;;;;5156956;27;20186;-73
2021/06/07 09:07:54;;;;;;;4.95;2.55;;;26.50;61.00;;;;;;5133837;28;20186;-73
2021/06/07 09:10:42;;;;;;;3.47;2.35;;;26.80;56.10;;;;;;5155589;27;20215;-73
2021/06/07 09:13:30;;;;;;;4.55;2.30;;;27.20;55.90;;;;;;5146980;27;20194;-74
2021/06/07 09:16:18;;;;;;;2.50;2.30;;;27.40;57.70;;;;;;5156188;27;20571;-74
2021/06/07 09:19:07;;;;;;;3.78;2.20;;;27.70;53.20;;;;;;5168228;27;20258;-75
2021/06/07 09:21:56;;;;;;;2.72;2.42;;;27.90;54.40;;;;;;5157691;27;20216;-74
2021/06/07 09:25:00;;;;;;;3.25;2.65;;;27.70;53.40;;;;;;5172594;27;20197;-74
2021/06/07 09:28:04;;;;;;;3.67;2.80;;;27.10;54.30;;;;;;5152506;27;20225;-75
2021/06/07 09:30:54;;;;;;;7.05;2.60;;;26.30;54.60;;;;;;5151729;27;20205;-76
2021/06/07 09:33:42;;;;;;;2.97;2.35;;;25.70;56.10;;;;;;5165622;27;20636;-75
2021/06/07 09:36:29;;;;;;;4.50;2.70;;;25.40;56.80;;;;;;5176628;27;20298;-76
2021/06/07 09:39:17;;;;;;;3.97;2.70;;;25.50;56.10;;;;;;5162910;27;20200;-76
2021/06/07 09:42:04;;;;;;;6.23;2.50;;;25.30;56.50;;;;;;5176115;27;20201;-75
2021/06/07 09:44:52;;;;;;;3.38;2.50;;;25.20;56.20;;;;;;5156846;27;20194;-75
2021/06/07 09:47:41;;;;;;;3.00;2.65;;;25.10;56.40;;;;;;5170186;27;20209;-73
2021/06/07 09:50:28;;;;;;;3.47;2.50;;;25.70;59.20;;;;;;5171288;27;20604;-74
2021/06/07 09:53:18;;;;;;;3.47;2.80;;;25.90;55.50;;;;;;5162765;27;20558;-73
2021/06/07 09:56:05;;;;;;;3.00;2.40;;;25.60;55.30;;;;;;5136273;27;20227;-74
2021/06/07 09:58:53;;;;;;;3.72;2.75;;;25.20;56.80;;;;;;5154387;27;20553;-75
2021/06/07 10:01:43;;;;;;;2.88;2.53;;;24.90;56.00;;;;;;5156374;27;20194;-72
2021/06/07 10:04:55;;;;;;;2.97;2.67;;;25.20;57.30;;;;;;5141479;27;20205;-73
2021/06/07 10:07:52;;;;;;;4.93;2.70;;;25.80;58.80;;;;;;5156315;27;20209;-73
2021/06/07 10:10:40;;;;;;;4.40;3.17;;;25.70;53.10;;;;;;5157502;27;20636;-74
2021/06/07 10:13:34;;;;;;;3.03;2.63;;;25.10;56.40;;;;;;5156012;27;20201;-73
2021/06/07 10:16:22;;;;;;;6.50;2.70;;;24.90;56.80;;;;;;5145670;27;20248;-74
2021/06/07 10:19:16;;;;;;;6.15;2.78;;;24.80;59.30;;;;;;5154830;27;20545;-73
2021/06/07 10:22:05;;;;;;;4.57;2.83;;;25.40;61.20;;;;;;5137648;27;20202;-73
2021/06/07 10:24:52;;;;;;;4.63;2.83;;;26.40;59.30;;;;;;5144871;27;20222;-73
2021/06/07 10:27:39;;;;;;;3.28;2.40;;;27.20;58.60;;;;;;5128598;27;20198;-72
2021/06/07 10:30:28;;;;;;;4.70;2.70;;;28.20;58.10;;;;;;5151239;27;20564;-72
2021/06/07 10:33:29;;;;;;;3.33;2.63;;;28.60;55.10;;;;;;5140926;27;20276;-73
2021/06/07 10:36:51;;;;;;;4.97;2.58;;;28.70;53.60;;;;;;5134389;27;20636;-73
2021/06/07 10:39:39;;;;;;;6.72;2.80;;;28.90;52.90;;;;;;5138740;27;20190;-74
2021/06/07 10:42:26;;;;;;;3.63;2.72;;;29.00;52.30;;;;;;5134880;27;20190;-75
2021/06/07 10:45:16;;;;;;;5.60;2.80;;;29.00;50.10;;;;;;5136232;27;20229;-74
2021/06/07 10:48:04;;;;;;;9.45;3.00;;;29.20;50.00;;;;;;5141398;27;20679;-74
2021/06/07 10:50:53;;;;;;;5.28;2.88;;;29.40;51.60;;;;;;5155561;27;20209;-75
2021/06/07 10:53:40;;;;;;;5.78;3.03;;;29.10;52.80;;;;;;5158039;27;20225;-73
2021/06/07 10:56:29;;;;;;;3.85;2.80;;;29.10;51.70;;;;;;5177045;27;20279;-73
2021/06/07 10:59:16;;;;;;;3.08;2.63;;;29.40;51.90;;;;;;5177424;27;20318;-73
2021/06/07 11:02:04;;;;;;;3.00;2.53;;;29.50;48.80;;;;;;5176773;27;20276;-73
2021/06/07 11:05:01;;;;;;;4.68;2.40;;;29.70;49.10;;;;;;5175471;27;20221;-73
2021/06/07 11:08:01;;;;;;;4.03;2.35;;;29.60;45.10;;;;;;5169450;27;20189;-73
2021/06/07 11:10:49;;;;;;;5.65;2.58;;;29.60;47.00;;;;;;5168379;27;20238;-73
2021/06/07 11:13:46;;;;;;;6.15;2.50;;;29.50;44.70;;;;;;5176539;27;20210;-74
2021/06/07 11:16:34;;;;;;;3.95;2.45;;;29.80;46.30;;;;;;5176340;27;20685;-73
2021/06/07 11:19:21;;;;;;;3.42;2.60;;;30.20;48.00;;;;;;5175639;27;20234;-74
2021/06/07 11:22:08;;;;;;;5.60;2.70;;;30.30;45.90;;;;;;5175719;27;20197;-72
2021/06/07 11:25:04;;;;;;;3.78;2.30;;;30.70;44.20;;;;;;5170393;27;20561;-72
2021/06/07 11:27:51;;;;;;;4.28;2.30;;;30.60;46.30;;;;;;5174863;27;20194;-77
2021/06/07 11:30:40;;;;;;;4.90;2.53;;;30.30;44.50;;;;;;5166781;27;20202;-73
2021/06/07 11:33:28;;;;;;;6.43;2.47;;;30.00;46.40;;;;;;5175183;27;20220;-75
2021/06/07 11:36:47;;;;;;;7.90;2.72;;;29.90;47.30;;;;;;5175601;27;20213;-75
2021/06/07 11:39:53;;;;;;;4.13;2.60;;;29.30;48.60;;;;;;5162357;27;20196;-74
2021/06/07 11:42:53;;;;;;;2.78;2.22;;;28.70;48.80;;;;;;5175125;27;20186;-75
2021/06/07 11:45:42;;;;;;;3.33;2.70;;;27.90;47.00;;;;;;5175317;27;20190;-74
2021/06/07 11:49:03;;;;;;;3.78;2.53;;;27.70;48.30;;;;;;5168749;27;20217;-74
2021/06/07 11:52:04;;;;;;;3.28;2.80;;;27.80;50.90;;;;;;5166909;27;20605;-73
2021/06/07 11:54:52;;;;;;;4.80;2.85;;;28.40;50.90;;;;;;5174158;27;20224;-73
2021/06/07 11:57:39;;;;;;;3.50;2.38;;;28.90;47.40;;;;;;5174149;27;20238;-73
2021/06/07 12:00:26;;;;;;;5.50;2.40;;;28.70;49.40;;;;;;5173255;27;20515;-73
2021/06/07 12:03:15;;;;;;;2.80;2.55;;;28.30;48.20;;;;;;5174049;27;20200;-74
2021/06/07 12:06:02;;;;;;;6.55;2.75;;;28.00;49.00;;;;;;5174890;27;20272;-73
2021/06/07 12:08:50;;;;;;;3.15;2.70;;;28.50;48.30;;;;;;5164966;27;20272;-74
2021/06/07 12:11:37;;;;;;;6.20;2.88;;;28.20;47.40;;;;;;5174675;27;20204;-75
2021/06/07 12:14:25;;;;;;;3.92;2.88;;;27.90;51.20;;;;;;5175238;27;20204;-75
2021/06/07 12:17:17;;;;;;;6.18;2.88;;;27.70;49.70;;;;;;5174265;27;20691;-74
2021/06/07 12:20:07;;;;;;;4.53;2.80;;;27.90;50.30;;;;;;5174535;27;20583;-74
2021/06/07 12:22:57;;;;;;;4.00;3.00;;;28.60;51.00;;;;;;5174498;27;20197;-74
2021/06/07 12:28:16;;;;;;;5.32;2.53;;;29.00;48.10;;;;;;5174158;27;20197;-73
2021/06/07 12:28:51;;;;;;;5.15;2.70;;;29.30;47.00;;;;;;5167000;27;20193;-72
2021/06/07 12:31:38;;;;;;;4.13;2.70;;;29.40;43.70;;;;;;5171998;27;20189;-72
2021/06/07 12:34:25;;;;;;;4.05;2.70;;;29.60;43.30;;;;;;5168349;27;20189;-72
2021/06/07 12:37:25;;;;;;;3.25;2.30;;;29.80;44.80;;;;;;5174690;27;20318;-72
2021/06/07 12:40:26;;;;;;;4.15;3.00;;;30.60;46.60;;;;;;5171178;27;20193;-73
2021/06/07 12:43:16;;;;;;;6.65;2.95;;;30.40;44.20;;;;;;5174099;27;20253;-74
2021/06/07 12:46:05;;;;;;;4.68;2.55;;;29.70;44.00;;;;;;5172944;27;20209;-73
2021/06/07 12:48:52;;;;;;;8.00;2.78;;;29.10;46.20;;;;;;5174976;27;20201;-75
2021/06/07 12:51:40;;;;;;;6.53;2.92;;;28.30;47.50;;;;;;5174818;27;20197;-74
2021/06/07 12:54:30;;;;;;;8.40;2.80;;;27.80;48.80;;;;;;5173959;27;20723;-74
2021/06/07 12:57:17;;;;;;;4.50;2.90;;;27.50;49.30;;;;;;5175301;27;20223;-74
2021/06/07 13:00:32;;;;;;;7.55;3.00;;;27.70;49.70;;;;;;5175371;27;20193;-74
2021/06/07 13:03:24;;;;;;;8.55;2.92;;;27.70;47.90;;;;;;5174656;27;20249;-74
2021/06/07 13:06:12;;;;;;;8.02;2.90;;;27.80;48.80;;;;;;5174278;27;20661;-73
2021/06/07 13:09:03;;;;;;;4.22;2.65;;;28.20;50.20;;;;;;5174615;27;20276;-73
2021/06/07 13:11:52;;;;;;;5.50;3.00;;;29.10;50.80;;;;;;5174738;27;20193;-73
2021/06/07 13:14:39;;;;;;;7.72;2.75;;;29.80;49.80;;;;;;5174636;27;20205;-72
2021/06/07 13:17:26;;;;;;;5.45;2.35;;;30.30;49.60;;;;;;5174618;27;20635;-73
2021/06/07 13:20:16;;;;;;;5.80;2.63;;;30.70;47.10;;;;;;5174923;27;20197;-73
2021/06/07 13:23:03;;;;;;;3.65;3.03;;;30.50;45.50;;;;;;5174810;27;20292;-73
2021/06/07 13:25:50;;;;;;;4.53;2.50;;;30.30;46.90;;;;;;5174561;27;20692;-74
2021/06/07 13:28:38;;;;;;;6.35;2.83;;;29.60;46.80;;;;;;5174065;27;20280;-74
2021/06/07 13:31:25;;;;;;;3.10;2.80;;;29.50;48.50;;;;;;5163122;27;20197;-73
2021/06/07 13:34:12;;;;;;;3.83;2.60;;;29.80;48.00;;;;;;5153616;27;20198;-73
2021/06/07 13:37:07;;;;;;;7.10;2.67;;;29.90;48.30;;;;;;5152907;27;20237;-73
2021/06/07 13:40:03;;;;;;;4.80;2.78;;;30.10;45.00;;;;;;5171111;27;20198;-72
2021/06/07 13:42:52;;;;;;;3.90;2.63;;;29.90;43.50;;;;;;5173478;27;20272;-72
2021/06/07 13:45:42;;;;;;;3.72;2.47;;;30.20;41.60;;;;;;5174026;27;20205;-71
2021/06/07 13:48:34;;;;;;;5.10;2.90;;;30.30;44.00;;;;;;5172906;27;20272;-71
2021/06/07 13:51:31;;;;;;;3.88;3.00;;;30.30;44.40;;;;;;5172980;27;20212;-71
2021/06/07 13:54:18;;;;;;;4.13;2.85;;;30.90;44.70;;;;;;5174342;27;20763;-72
2021/06/07 13:57:08;;;;;;;8.80;3.17;;;31.30;46.60;;;;;;5173123;27;20212;-71
2021/06/07 13:59:55;;;;;;;4.40;3.00;;;31.10;42.20;;;;;;5173254;27;20198;-71
2021/06/07 14:02:44;;;;;;;6.15;2.85;;;31.10;43.70;;;;;;5175947;27;20229;-71
2021/06/07 14:05:31;;;;;;;6.07;2.78;;;31.00;45.70;;;;;;5177657;27;20196;-71
2021/06/07 14:08:20;;;;;;;3.85;2.80;;;30.80;43.30;;;;;;5176630;27;20201;-74
2021/06/07 14:11:08;;;;;;;4.85;2.70;;;30.40;44.40;;;;;;5177488;27;20610;-73
2021/06/07 14:13:56;;;;;;;3.92;2.78;;;30.60;45.70;;;;;;5177567;27;20193;-74
2021/06/07 14:16:43;;;;;;;3.90;2.58;;;30.20;43.70;;;;;;5177002;27;20257;-74
2021/06/07 14:19:32;;;;;;;9.15;3.00;;;30.00;45.50;;;;;;5177113;27;20193;-73
2021/06/07 14:25:37;;;;;;;4.88;3.13;;;30.30;44.30;;;;;;5103121;28;20627;-72
2021/06/07 14:28:24;;;;;;;5.63;3.35;;;30.30;44.30;;;;;;5112132;28;20196;-73
2021/06/07 14:31:12;;;;;;;3.88;2.85;;;30.30;45.30;;;;;;5086506;28;20562;-74
2021/06/07 14:33:59;;;;;;;4.97;3.20;;;29.90;45.40;;;;;;5082069;28;20705;-74
2021/06/07 14:36:49;;;;;;;3.83;3.00;;;29.40;46.60;;;;;;5101303;28;20211;-73
2021/06/07 14:39:36;;;;;;;7.90;3.33;;;29.20;46.80;;;;;;5084742;28;20278;-72
2021/06/07 14:42:24;;;;;;;5.38;3.10;;;29.50;48.50;;;;;;5092274;28;20265;-73
2021/06/07 14:45:12;;;;;;;3.95;3.05;;;29.50;47.30;;;;;;5101509;28;20204;-73
2021/06/07 14:48:00;;;;;;;3.70;2.85;;;29.90;48.10;;;;;;5093240;28;20212;-74